Time;durP1;ratioP1;P1;durP2;ratioP2;P2;SDS_P1;SDS_P2;PMS_P1;PMS_P2;Temp;Humidity;BMP_temperature;BMP_pressure;BME280_temperature;BME280_humidity;BME280_pressure;Samples;Min_cycle;Max_cycle;Signal;HPM_P1;HPM_P2
2024/01/27 00:01:48;;;;;;;22.95;4.93;;;3.30;99.90;;;;;;5027252;28;20042;-65
2024/01/27 00:04:14;;;;;;;24.60;4.67;;;3.30;99.90;;;;;;5026926;28;20045;-66
2024/01/27 00:06:39;;;;;;;25.23;4.07;;;3.30;99.90;;;;;;5028596;28;20036;-66
2024/01/27 00:09:06;;;;;;;22.95;4.57;;;3.20;99.90;;;;;;5030767;28;20042;-66
2024/01/27 00:11:32;;;;;;;19.42;4.45;;;3.20;99.90;;;;;;5012404;28;20045;-66
2024/01/27 00:13:59;;;;;;;19.92;4.38;;;3.20;99.90;;;;;;5030102;28;20045;-66
2024/01/27 00:16:24;;;;;;;18.30;4.07;;;3.20;99.90;;;;;;5018477;28;20485;-66
2024/01/27 00:18:50;;;;;;;14.77;3.83;;;3.20;99.90;;;;;;5029696;28;20048;-66
2024/01/27 00:21:16;;;;;;;20.47;4.20;;;3.20;99.90;;;;;;5012305;28;20041;-67
2024/01/27 00:23:41;;;;;;;23.37;4.13;;;3.20;99.90;;;;;;5031536;28;20030;-70
2024/01/27 00:26:07;;;;;;;26.57;5.43;;;3.10;99.90;;;;;;5030392;28;20312;-66
2024/01/27 00:28:32;;;;;;;19.30;4.80;;;3.10;99.90;;;;;;5031069;28;20032;-67
2024/01/27 00:30:58;;;;;;;20.23;3.90;;;3.10;99.90;;;;;;5027581;28;20057;-68
2024/01/27 00:33:23;;;;;;;24.13;5.20;;;3.10;99.90;;;;;;5031652;28;20041;-69
2024/01/27 00:35:49;;;;;;;17.70;3.63;;;3.20;99.90;;;;;;5031054;28;20043;-66
2024/01/27 00:38:15;;;;;;;23.53;3.33;;;3.20;99.90;;;;;;5029352;28;20037;-67
2024/01/27 00:40:40;;;;;;;21.87;3.20;;;3.20;99.90;;;;;;5029847;28;20037;-66
2024/01/27 00:43:06;;;;;;;28.42;5.25;;;3.20;99.90;;;;;;5028245;28;20045;-69
2024/01/27 00:45:32;;;;;;;28.53;4.73;;;3.20;99.90;;;;;;5028540;28;20083;-67
2024/01/27 00:47:57;;;;;;;21.03;4.10;;;3.20;99.90;;;;;;5022837;28;21052;-67
2024/01/27 00:50:23;;;;;;;17.67;3.73;;;3.20;99.90;;;;;;5028315;28;20033;-68
2024/01/27 00:52:49;;;;;;;16.73;4.20;;;3.20;99.90;;;;;;5029033;28;20065;-67
2024/01/27 00:55:15;;;;;;;24.70;5.03;;;3.20;99.90;;;;;;5028497;28;20323;-67
2024/01/27 00:57:40;;;;;;;22.45;4.60;;;3.20;99.90;;;;;;5028873;28;20505;-67
2024/01/27 01:00:08;;;;;;;14.97;3.13;;;3.20;99.90;;;;;;5028886;28;20091;-67
2024/01/27 01:02:34;;;;;;;21.17;4.30;;;3.10;99.90;;;;;;5028569;28;20100;-69
2024/01/27 01:05:00;;;;;;;;;;;3.10;99.90;;;;;;5030992;28;20052;-67
2024/01/27 01:07:26;;;;;;;25.20;4.18;;;3.10;99.90;;;;;;5035659;28;19940;-67
2024/01/27 01:09:52;;;;;;;21.57;4.63;;;3.10;99.90;;;;;;5031560;28;20041;-66
2024/01/27 01:12:17;;;;;;;20.13;3.40;;;3.10;99.90;;;;;;5027706;28;20048;-67
2024/01/27 01:14:43;;;;;;;32.93;5.23;;;3.10;99.90;;;;;;5028115;28;20045;-67
2024/01/27 01:17:09;;;;;;;12.98;4.53;;;3.10;99.90;;;;;;5027391;28;20410;-67
2024/01/27 01:19:37;;;;;;;17.25;3.90;;;3.10;99.90;;;;;;5028925;28;20037;-66
2024/01/27 01:22:03;;;;;;;30.88;4.18;;;3.10;99.90;;;;;;5029501;28;20045;-67
2024/01/27 01:24:30;;;;;;;19.83;3.85;;;3.10;99.90;;;;;;5029276;28;20539;-68
2024/01/27 01:26:55;;;;;;;25.58;3.97;;;3.10;99.90;;;;;;5028805;28;20037;-66
2024/01/27 01:29:22;;;;;;;20.23;4.27;;;3.10;99.90;;;;;;5028840;28;20609;-68
2024/01/27 01:31:47;;;;;;;22.98;4.10;;;3.20;99.90;;;;;;5011485;28;20049;-67
2024/01/27 01:34:13;;;;;;;25.17;5.00;;;3.20;99.90;;;;;;5028919;28;20167;-69
2024/01/27 01:36:39;;;;;;;20.52;3.75;;;3.20;99.90;;;;;;5028636;28;20211;-67
2024/01/27 01:39:05;;;;;;;22.43;3.63;;;3.20;99.90;;;;;;5029713;28;20040;-66
2024/01/27 01:41:30;;;;;;;18.60;3.13;;;3.10;99.90;;;;;;5028871;28;20030;-68
2024/01/27 01:43:56;;;;;;;18.30;3.50;;;3.10;99.90;;;;;;5028043;28;20048;-67
2024/01/27 01:46:23;;;;;;;15.43;3.07;;;3.10;99.90;;;;;;5028185;28;20033;-67
2024/01/27 01:48:49;;;;;;;22.95;4.20;;;3.10;99.90;;;;;;5022745;28;20038;-67
2024/01/27 01:51:16;;;;;;;26.02;4.32;;;3.20;99.90;;;;;;5028831;28;20040;-68
2024/01/27 01:53:43;;;;;;;14.18;3.00;;;3.10;99.90;;;;;;5027838;28;20037;-67
2024/01/27 01:56:09;;;;;;;22.38;4.00;;;3.10;99.90;;;;;;5026794;28;20294;-67
2024/01/27 01:58:34;;;;;;;16.30;4.07;;;3.10;99.90;;;;;;5028188;28;20106;-68
2024/01/27 02:01:01;;;;;;;20.27;3.17;;;3.10;99.90;;;;;;5028633;28;20061;-67
2024/01/27 02:03:27;;;;;;;18.20;3.35;;;3.10;99.90;;;;;;5029171;28;20038;-67
2024/01/27 02:05:53;;;;;;;16.27;3.92;;;3.10;99.90;;;;;;5028327;28;20041;-67
2024/01/27 02:08:18;;;;;;;20.73;4.60;;;3.10;99.90;;;;;;5028444;28;20048;-67
2024/01/27 02:10:45;;;;;;;16.33;3.50;;;3.10;99.90;;;;;;5028206;28;20046;-67
2024/01/27 02:13:21;;;;;;;18.63;4.25;;;3.10;99.90;;;;;;5027895;28;20099;-67
2024/01/27 02:15:49;;;;;;;13.57;3.67;;;3.00;99.90;;;;;;5027487;28;20423;-67
2024/01/27 02:18:15;;;;;;;20.23;4.43;;;3.10;99.90;;;;;;5027475;28;20052;-67
2024/01/27 02:20:40;;;;;;;21.20;4.40;;;3.10;99.90;;;;;;5026846;28;20034;-67
2024/01/27 02:23:06;;;;;;;18.80;3.67;;;3.10;99.90;;;;;;5040655;28;20040;-67
2024/01/27 02:25:32;;;;;;;25.58;5.35;;;3.00;99.90;;;;;;5008795;28;20331;-67
2024/01/27 02:27:58;;;;;;;21.27;4.05;;;3.00;99.90;;;;;;5027960;28;20038;-68
2024/01/27 02:30:24;;;;;;;19.50;4.15;;;3.00;99.90;;;;;;5029787;28;20025;-68
2024/01/27 02:32:51;;;;;;;17.40;3.30;;;3.10;99.90;;;;;;5027899;28;20063;-68
2024/01/27 02:35:17;;;;;;;17.05;4.05;;;3.10;99.90;;;;;;5027824;28;20034;-69
2024/01/27 02:37:42;;;;;;;23.53;4.87;;;3.10;99.90;;;;;;5028012;28;21751;-68
2024/01/27 02:40:12;;;;;;;22.40;4.50;;;3.00;99.90;;;;;;5028106;28;20033;-67
2024/01/27 02:42:37;;;;;;;19.13;3.45;;;3.10;99.90;;;;;;5026579;28;20111;-68
2024/01/27 02:45:04;;;;;;;19.57;5.33;;;3.00;99.90;;;;;;5026168;28;20041;-67
2024/01/27 02:47:30;;;;;;;23.60;4.15;;;3.00;99.90;;;;;;5028176;28;20037;-67
2024/01/27 02:49:55;;;;;;;18.38;4.35;;;3.00;99.90;;;;;;5024186;28;20041;-67
2024/01/27 02:52:21;;;;;;;22.33;5.27;;;3.10;99.90;;;;;;5026929;28;20112;-67
2024/01/27 02:54:47;;;;;;;19.13;3.23;;;3.00;99.90;;;;;;5027786;28;20067;-68
2024/01/27 02:57:13;;;;;;;28.83;5.37;;;3.10;99.90;;;;;;5026985;28;20736;-67
2024/01/27 02:59:41;;;;;;;14.75;3.25;;;3.10;99.90;;;;;;5026832;28;20469;-67
2024/01/27 03:02:06;;;;;;;13.73;3.53;;;3.10;99.90;;;;;;5009929;28;20033;-67
2024/01/27 03:04:32;;;;;;;18.17;3.90;;;3.10;99.90;;;;;;5026402;28;20040;-69
2024/01/27 03:06:58;;;;;;;14.73;3.63;;;3.10;99.90;;;;;;5027002;28;20099;-68
2024/01/27 03:09:23;;;;;;;17.37;4.77;;;3.10;99.90;;;;;;5028824;28;20104;-67
2024/01/27 03:11:49;;;;;;;14.03;3.47;;;3.00;99.90;;;;;;5025200;28;20272;-67
2024/01/27 03:14:15;;;;;;;24.57;4.37;;;3.10;99.90;;;;;;5027809;28;20034;-67
2024/01/27 03:16:40;;;;;;;17.27;3.47;;;3.00;99.90;;;;;;5027187;28;20037;-68
2024/01/27 03:19:06;;;;;;;21.87;5.10;;;3.10;99.90;;;;;;5027213;28;20033;-67
2024/01/27 03:21:32;;;;;;;24.13;4.05;;;3.00;99.90;;;;;;5008969;28;20069;-67
2024/01/27 03:23:58;;;;;;;13.50;3.72;;;3.00;99.90;;;;;;5025032;28;20034;-66
2024/01/27 03:26:23;;;;;;;20.92;4.13;;;3.00;99.90;;;;;;5024819;28;20083;-67
2024/01/27 03:28:49;;;;;;;17.70;4.00;;;3.00;99.90;;;;;;5029680;28;20085;-68
2024/01/27 03:31:15;;;;;;;25.17;3.67;;;3.00;99.90;;;;;;5027236;28;20044;-67
2024/01/27 03:33:40;;;;;;;25.83;3.70;;;3.00;99.90;;;;;;5029473;28;20038;-66
2024/01/27 03:36:10;;;;;;;17.97;4.57;;;3.00;99.90;;;;;;4994704;28;20041;-66
2024/01/27 03:38:36;;;;;;;21.35;4.03;;;3.00;99.90;;;;;;5026721;28;20045;-67
2024/01/27 03:41:02;;;;;;;20.83;3.30;;;3.00;99.90;;;;;;5028355;28;20102;-67
2024/01/27 03:43:27;;;;;;;18.83;4.40;;;3.00;99.90;;;;;;5030941;28;20120;-67
2024/01/27 03:45:53;;;;;;;15.33;4.20;;;3.00;99.90;;;;;;5028836;28;20421;-67
2024/01/27 03:48:19;;;;;;;23.30;5.80;;;3.00;99.90;;;;;;5030557;28;20048;-68
2024/01/27 03:50:44;;;;;;;18.23;4.03;;;3.00;99.90;;;;;;5025647;28;20033;-69
2024/01/27 03:53:10;;;;;;;13.83;4.57;;;3.00;99.90;;;;;;5033373;28;20036;-68
2024/01/27 03:55:36;;;;;;;20.77;4.90;;;3.00;99.90;;;;;;5041876;28;20037;-67
2024/01/27 03:58:01;;;;;;;16.50;4.37;;;3.00;99.90;;;;;;5030836;28;20041;-68
2024/01/27 04:00:29;;;;;;;26.17;3.33;;;3.00;99.90;;;;;;5032336;28;20045;-68
2024/01/27 04:02:55;;;;;;;24.65;4.88;;;3.00;99.90;;;;;;5030270;28;20095;-70
2024/01/27 04:05:20;;;;;;;23.33;4.50;;;3.00;99.90;;;;;;5029541;28;20037;-68
2024/01/27 04:07:46;;;;;;;22.67;3.97;;;3.10;99.90;;;;;;5029246;28;20128;-67
2024/01/27 04:10:12;;;;;;;23.13;4.63;;;3.00;99.90;;;;;;5030141;28;20033;-68
2024/01/27 04:12:37;;;;;;;29.70;5.97;;;3.00;99.90;;;;;;5029822;28;20120;-68
2024/01/27 04:15:03;;;;;;;24.60;4.20;;;3.00;99.90;;;;;;5031042;28;20064;-67
2024/01/27 04:17:29;;;;;;;18.75;4.55;;;3.00;99.90;;;;;;5029326;28;20041;-68
2024/01/27 04:19:54;;;;;;;19.30;3.63;;;3.00;99.90;;;;;;5030268;28;20047;-67
2024/01/27 04:22:20;;;;;;;24.53;4.43;;;3.00;99.90;;;;;;5030418;28;20037;-68
2024/01/27 04:24:45;;;;;;;23.63;5.07;;;3.00;99.90;;;;;;5029134;28;20069;-68
2024/01/27 04:27:11;;;;;;;17.10;2.83;;;3.00;99.90;;;;;;5030153;28;20067;-67
2024/01/27 04:29:37;;;;;;;14.40;3.63;;;2.90;99.90;;;;;;5031592;28;20757;-67
2024/01/27 04:32:03;;;;;;;23.23;3.83;;;2.90;99.90;;;;;;5030734;28;20086;-67
2024/01/27 04:34:28;;;;;;;27.23;4.43;;;3.00;99.90;;;;;;5030203;28;20041;-67
2024/01/27 04:36:54;;;;;;;28.57;4.50;;;2.90;99.90;;;;;;5029668;28;20034;-68
2024/01/27 04:39:19;;;;;;;15.50;3.83;;;3.00;99.90;;;;;;5029734;28;20536;-67
2024/01/27 04:41:45;;;;;;;25.20;4.10;;;3.00;99.90;;;;;;5029551;28;20053;-68
2024/01/27 04:44:11;;;;;;;20.70;4.43;;;2.90;99.90;;;;;;5029401;28;20077;-68
2024/01/27 04:46:36;;;;;;;21.60;4.57;;;3.00;99.90;;;;;;5029827;28;20043;-68
2024/01/27 04:49:02;;;;;;;26.27;5.37;;;2.90;99.90;;;;;;5028253;28;20033;-68
2024/01/27 04:51:28;;;;;;;19.80;3.77;;;2.90;99.90;;;;;;5029886;28;20472;-68
2024/01/27 04:53:53;;;;;;;17.30;4.10;;;3.00;99.90;;;;;;5029357;28;20068;-67
2024/01/27 04:56:19;;;;;;;19.80;4.77;;;2.90;99.90;;;;;;5023629;28;20095;-68
2024/01/27 04:58:44;;;;;;;15.93;3.47;;;2.90;99.90;;;;;;5034070;28;20061;-67
2024/01/27 05:01:10;;;;;;;20.27;4.70;;;2.80;99.90;;;;;;5034371;28;20049;-68
2024/01/27 05:03:36;;;;;;;32.27;5.43;;;2.80;99.90;;;;;;5028751;28;20606;-67
2024/01/27 05:06:02;;;;;;;15.60;3.80;;;2.70;99.90;;;;;;5029340;28;20125;-67
2024/01/27 05:08:28;;;;;;;20.35;4.95;;;2.60;99.90;;;;;;5030337;28;20280;-67
2024/01/27 05:10:53;;;;;;;20.03;4.07;;;2.60;99.90;;;;;;5028989;28;20037;-67
2024/01/27 05:13:19;;;;;;;26.90;4.67;;;2.50;99.90;;;;;;5028041;28;20107;-66
2024/01/27 05:15:45;;;;;;;20.30;4.70;;;2.50;99.90;;;;;;5028248;28;20029;-67
2024/01/27 05:18:10;;;;;;;19.40;4.47;;;2.40;99.90;;;;;;5028689;28;20041;-68
2024/01/27 05:20:36;;;;;;;22.07;4.30;;;2.30;99.90;;;;;;5030750;28;20049;-66
2024/01/27 05:23:01;;;;;;;20.43;4.23;;;2.30;99.90;;;;;;5011513;28;20048;-66
2024/01/27 05:25:27;;;;;;;23.13;5.47;;;2.30;99.90;;;;;;5019080;28;20037;-67
2024/01/27 05:27:53;;;;;;;26.10;5.17;;;2.20;99.90;;;;;;5010371;28;20044;-66
2024/01/27 05:30:18;;;;;;;22.07;5.00;;;2.20;99.90;;;;;;5028473;28;20061;-68
2024/01/27 05:32:44;;;;;;;26.20;5.93;;;2.20;99.90;;;;;;5028730;28;20037;-66
2024/01/27 05:35:10;;;;;;;19.00;5.03;;;2.20;99.90;;;;;;5028917;28;20452;-66
2024/01/27 05:37:36;;;;;;;25.90;6.75;;;2.10;99.90;;;;;;5028938;28;20083;-66
2024/01/27 05:40:02;;;;;;;20.70;5.93;;;2.10;99.90;;;;;;5029830;28;20449;-67
2024/01/27 05:42:28;;;;;;;23.83;6.65;;;2.10;99.90;;;;;;5028494;28;20038;-66
2024/01/27 05:44:54;;;;;;;28.13;6.80;;;2.10;99.90;;;;;;5028143;28;20045;-66
2024/01/27 05:47:19;;;;;;;23.87;5.53;;;2.10;99.90;;;;;;5028945;28;20068;-66
2024/01/27 05:49:45;;;;;;;28.60;5.90;;;2.10;99.90;;;;;;5028789;28;20087;-67
2024/01/27 05:52:10;;;;;;;23.63;6.80;;;2.10;99.90;;;;;;5029089;28;20034;-69
2024/01/27 05:54:36;;;;;;;22.87;6.63;;;2.10;99.90;;;;;;5041649;28;20034;-67
2024/01/27 05:57:03;;;;;;;21.20;7.47;;;2.10;99.90;;;;;;5027612;28;20123;-68
2024/01/27 05:59:28;;;;;;;21.20;8.23;;;2.10;99.90;;;;;;5022820;28;20044;-67
2024/01/27 06:01:54;;;;;;;23.47;7.60;;;2.00;99.90;;;;;;5028019;28;20484;-67
2024/01/27 06:04:20;;;;;;;21.23;8.13;;;2.00;99.90;;;;;;5027836;28;20104;-67
2024/01/27 06:06:45;;;;;;;28.97;7.53;;;2.00;99.90;;;;;;5028414;28;20041;-67
2024/01/27 06:09:11;;;;;;;28.53;7.10;;;1.90;99.90;;;;;;5027775;28;20112;-67
2024/01/27 06:11:37;;;;;;;28.53;8.50;;;1.90;99.90;;;;;;5025493;28;20413;-69
2024/01/27 06:14:04;;;;;;;19.10;7.00;;;1.90;99.90;;;;;;5027274;28;20465;-67
2024/01/27 06:16:30;;;;;;;18.47;7.33;;;1.90;99.90;;;;;;5026688;28;20124;-67
2024/01/27 06:18:56;;;;;;;18.57;6.63;;;1.90;99.90;;;;;;5027944;28;21050;-67
2024/01/27 06:21:21;;;;;;;28.17;8.00;;;1.90;99.90;;;;;;5029296;28;20107;-68
2024/01/27 06:23:47;;;;;;;22.52;7.43;;;1.90;99.90;;;;;;5027190;28;20045;-67
2024/01/27 06:26:14;;;;;;;31.60;8.77;;;2.00;99.90;;;;;;5026898;28;20524;-67
2024/01/27 06:28:40;;;;;;;31.35;8.63;;;2.00;99.90;;;;;;5027957;28;20040;-68
2024/01/27 06:31:07;;;;;;;33.55;7.82;;;2.10;99.90;;;;;;5027082;28;20044;-67
2024/01/27 06:33:34;;;;;;;32.45;9.93;;;2.20;99.90;;;;;;5028616;28;20124;-67
2024/01/27 06:36:00;;;;;;;21.75;7.90;;;2.20;99.90;;;;;;5028071;28;20517;-67
2024/01/27 06:38:31;;;;;;;30.77;9.10;;;2.30;99.90;;;;;;5027724;28;20055;-67
2024/01/27 06:40:57;;;;;;;31.80;9.65;;;2.40;99.90;;;;;;5027040;28;20104;-67
2024/01/27 06:43:23;;;;;;;20.33;9.33;;;2.40;99.90;;;;;;5028009;28;20037;-67
2024/01/27 06:45:49;;;;;;;30.27;9.40;;;2.40;99.90;;;;;;5027082;28;20048;-67
2024/01/27 06:48:15;;;;;;;25.13;8.67;;;2.40;99.90;;;;;;5027914;28;20041;-67
2024/01/27 06:50:40;;;;;;;19.83;9.23;;;2.40;99.90;;;;;;5026917;28;20456;-67
2024/01/27 06:53:06;;;;;;;27.77;9.67;;;2.40;99.90;;;;;;5009403;28;20057;-68
2024/01/27 06:55:31;;;;;;;20.57;8.53;;;2.30;99.90;;;;;;5026276;28;20072;-66
2024/01/27 06:57:57;;;;;;;22.90;9.27;;;2.30;99.90;;;;;;5027603;28;20083;-67
2024/01/27 07:00:23;;;;;;;34.70;9.17;;;2.20;99.90;;;;;;5022035;28;20120;-67
2024/01/27 07:02:48;;;;;;;25.73;9.73;;;2.20;99.90;;;;;;5028044;28;20099;-67
2024/01/27 07:05:14;;;;;;;31.90;9.93;;;2.10;99.90;;;;;;5026596;28;20064;-67
2024/01/27 07:07:41;;;;;;;27.87;9.53;;;2.10;99.90;;;;;;5027060;28;20068;-67
2024/01/27 07:10:10;;;;;;;22.55;9.18;;;2.00;99.90;;;;;;5027648;28;20470;-66
2024/01/27 07:12:36;;;;;;;27.60;10.55;;;2.00;99.90;;;;;;5028159;28;20033;-67
2024/01/27 07:15:02;;;;;;;30.58;10.15;;;2.00;99.90;;;;;;5027048;28;20049;-68
2024/01/27 07:17:28;;;;;;;22.33;10.52;;;1.90;99.90;;;;;;5031104;28;20079;-67
2024/01/27 07:19:53;;;;;;;32.50;10.65;;;2.00;99.90;;;;;;5031385;28;20080;-67
2024/01/27 07:22:19;;;;;;;29.60;10.98;;;1.90;99.90;;;;;;5030107;28;20072;-67
2024/01/27 07:24:45;;;;;;;34.07;11.40;;;2.00;99.90;;;;;;5032059;28;20034;-67
2024/01/27 07:27:13;;;;;;;31.40;10.40;;;2.00;99.90;;;;;;5013607;28;20043;-67
2024/01/27 07:29:38;;;;;;;29.70;10.25;;;2.00;99.90;;;;;;5031700;28;20038;-68
2024/01/27 07:32:05;;;;;;;27.77;10.07;;;2.00;99.90;;;;;;5029294;28;20029;-68
2024/01/27 07:34:30;;;;;;;;;;;2.00;99.90;;;;;;5029889;28;20037;-68
2024/01/27 07:36:56;;;;;;;21.52;9.52;;;2.00;99.90;;;;;;5030328;28;19931;-68
2024/01/27 07:39:21;;;;;;;18.90;9.83;;;2.00;99.90;;;;;;5030532;28;20570;-66
2024/01/27 07:41:48;;;;;;;25.70;9.50;;;2.10;99.90;;;;;;5030908;28;20045;-67
2024/01/27 07:44:14;;;;;;;22.42;9.18;;;2.10;99.90;;;;;;5035408;28;20045;-66
2024/01/27 07:46:41;;;;;;;25.88;9.45;;;2.20;99.90;;;;;;5033416;28;20048;-66
2024/01/27 07:49:08;;;;;;;23.70;8.65;;;2.40;99.90;;;;;;5029944;28;20033;-66
2024/01/27 07:51:34;;;;;;;19.02;7.97;;;2.60;99.90;;;;;;5030311;28;20057;-67
2024/01/27 07:54:00;;;;;;;25.23;8.98;;;2.80;99.90;;;;;;5030211;28;20045;-68
2024/01/27 07:56:26;;;;;;;;;;;3.00;99.90;;;;;;5029278;28;20037;-68
2024/01/27 07:58:52;;;;;;;24.58;7.57;;;3.20;99.90;;;;;;5029769;28;19924;-67
2024/01/27 08:01:18;;;;;;;26.98;7.70;;;3.50;99.90;;;;;;5030400;28;20033;-68
2024/01/27 08:03:44;;;;;;;;;;;3.80;99.90;;;;;;5028355;28;20544;-68
2024/01/27 08:06:18;;;;;;;20.08;7.50;;;4.10;99.90;;;;;;5028712;28;19925;-67
2024/01/27 08:08:48;;;;;;;21.30;6.30;;;4.40;99.90;;;;;;5029976;28;20494;-68
2024/01/27 08:11:18;;;;;;;19.77;6.68;;;4.50;99.90;;;;;;5012503;28;20047;-67
2024/01/27 08:13:43;;;;;;;21.20;6.88;;;4.40;99.90;;;;;;5028572;28;20030;-68
2024/01/27 08:16:12;;;;;;;27.15;7.03;;;4.30;99.90;;;;;;5027209;28;20068;-68
2024/01/27 08:18:42;;;;;;;15.30;6.93;;;4.30;99.90;;;;;;5027899;28;20120;-68
2024/01/27 08:21:08;;;;;;;19.17;7.25;;;4.50;99.90;;;;;;5030862;28;20040;-68
2024/01/27 08:23:34;;;;;;;22.77;5.85;;;5.00;99.90;;;;;;5013675;28;20123;-67
2024/01/27 08:26:00;;;;;;;21.83;6.18;;;5.50;99.90;;;;;;5028357;28;20662;-68
2024/01/27 08:28:26;;;;;;;18.38;5.97;;;6.20;99.90;;;;;;5029360;28;20033;-67
2024/01/27 08:30:52;;;;;;;17.85;5.70;;;6.80;99.90;;;;;;5029410;28;20037;-67
2024/01/27 08:33:17;;;;;;;15.40;5.13;;;7.30;99.90;;;;;;5031736;28;20069;-70
2024/01/27 08:35:43;;;;;;;14.23;6.20;;;7.60;99.90;;;;;;5034159;28;20292;-67
2024/01/27 08:38:09;;;;;;;18.90;5.82;;;8.20;99.90;;;;;;5030090;28;20029;-68
2024/01/27 08:40:35;;;;;;;15.70;4.20;;;8.90;99.90;;;;;;5030134;28;20083;-69
2024/01/27 08:43:01;;;;;;;13.80;4.72;;;9.40;99.90;;;;;;5030129;28;20513;-66
2024/01/27 08:45:27;;;;;;;16.60;5.00;;;9.80;99.90;;;;;;5042140;28;20049;-67
2024/01/27 08:47:53;;;;;;;13.73;5.03;;;10.00;99.90;;;;;;5032101;28;20555;-67
2024/01/27 08:50:19;;;;;;;18.95;5.60;;;10.00;99.90;;;;;;5031440;28;20037;-65
2024/01/27 08:52:46;;;;;;;19.83;5.35;;;10.10;99.90;;;;;;5034606;28;20045;-67
2024/01/27 08:55:12;;;;;;;17.85;4.68;;;10.30;99.90;;;;;;5030904;28;20041;-67
2024/01/27 08:57:37;;;;;;;12.13;4.82;;;10.50;99.90;;;;;;5032267;28;20402;-66
2024/01/27 09:00:03;;;;;;;13.32;4.53;;;10.80;99.90;;;;;;5031756;28;20124;-66
2024/01/27 09:02:29;;;;;;;13.13;4.90;;;11.00;99.90;;;;;;5032061;28;20029;-66
2024/01/27 09:04:55;;;;;;;15.55;4.38;;;11.20;99.90;;;;;;5034582;28;20535;-66
2024/01/27 09:07:21;;;;;;;;;;;11.10;99.90;;;;;;5031729;28;20044;-66
2024/01/27 09:09:47;;;;;;;20.25;6.10;;;11.40;99.90;;;;;;5033339;28;20375;-66
2024/01/27 09:12:12;;;;;;;15.90;4.85;;;11.50;99.90;;;;;;5031021;28;20033;-67
2024/01/27 09:14:38;;;;;;;11.95;5.53;;;11.60;99.90;;;;;;5031194;28;20037;-66
2024/01/27 09:17:03;;;;;;;17.77;6.13;;;11.50;99.90;;;;;;5030623;28;20041;-66
2024/01/27 09:19:58;;;;;;;19.83;5.50;;;11.40;99.90;;;;;;5029758;28;20049;-66
2024/01/27 09:22:24;;;;;;;16.15;4.97;;;11.70;99.90;;;;;;5029328;28;20268;-66
2024/01/27 09:24:51;;;;;;;13.17;6.13;;;12.10;99.90;;;;;;5030912;28;20057;-66
2024/01/27 09:27:16;;;;;;;23.95;7.78;;;12.30;99.90;;;;;;5030324;28;20272;-66
2024/01/27 09:29:42;;;;;;;18.85;7.55;;;12.20;99.90;;;;;;5031143;28;20044;-66
2024/01/27 09:32:08;;;;;;;16.43;6.57;;;12.20;99.90;;;;;;5030810;28;20047;-65
2024/01/27 09:34:34;;;;;;;18.10;7.72;;;12.20;99.90;;;;;;5028860;28;20288;-65
2024/01/27 09:37:00;;;;;;;18.08;8.30;;;12.30;99.90;;;;;;5024211;28;20132;-64
2024/01/27 09:39:25;;;;;;;22.70;7.60;;;12.00;99.90;;;;;;5029074;28;20432;-64
2024/01/27 09:41:52;;;;;;;15.75;6.75;;;12.00;99.90;;;;;;5033908;28;20037;-65
2024/01/27 09:44:19;;;;;;;16.75;7.15;;;12.20;99.90;;;;;;5029690;28;20037;-66
2024/01/27 09:46:46;;;;;;;21.05;8.05;;;12.40;99.90;;;;;;5029487;28;20048;-64
2024/01/27 09:49:13;;;;;;;;;;;12.40;99.90;;;;;;5034651;28;20047;-65
2024/01/27 09:51:40;;;;;;;17.58;6.20;;;12.40;99.40;;;;;;5012308;28;19917;-65
2024/01/27 09:54:06;;;;;;;20.52;6.97;;;11.90;99.90;;;;;;5030091;28;20065;-65
2024/01/27 09:56:33;;;;;;;15.60;6.43;;;11.50;99.90;;;;;;5030641;28;20079;-65
2024/01/27 09:59:00;;;;;;;16.30;6.60;;;11.10;99.90;;;;;;5030307;28;20041;-65
2024/01/27 10:01:27;;;;;;;;;;;10.60;99.90;;;;;;5030227;28;20073;-64
2024/01/27 10:03:54;;;;;;;17.48;6.78;;;10.40;99.90;;;;;;5015736;28;20101;-65
2024/01/27 10:06:21;;;;;;;19.52;6.35;;;10.10;99.90;;;;;;5030903;28;20472;-65
2024/01/27 10:08:55;;;;;;;15.75;7.20;;;9.90;99.90;;;;;;5029885;28;20141;-66
2024/01/27 10:11:22;;;;;;;22.67;7.05;;;9.50;99.90;;;;;;5029713;28;20076;-64
2024/01/27 10:13:56;;;;;;;17.25;6.20;;;9.50;99.90;;;;;;5029662;28;20044;-65
2024/01/27 10:16:21;;;;;;;14.50;5.60;;;9.40;99.90;;;;;;5031101;28;20091;-65
2024/01/27 10:18:47;;;;;;;14.98;5.70;;;9.30;99.90;;;;;;5030870;28;20041;-64
2024/01/27 10:21:18;;;;;;;17.07;6.47;;;9.40;99.90;;;;;;5036437;28;20040;-65
2024/01/27 10:23:43;;;;;;;25.15;6.75;;;9.40;99.90;;;;;;5019275;28;20053;-64
2024/01/27 10:26:10;;;;;;;22.93;7.40;;;9.40;99.90;;;;;;5031259;28;20429;-65
2024/01/27 10:28:35;;;;;;;17.17;6.72;;;9.50;99.90;;;;;;5030462;28;20029;-64
2024/01/27 10:31:13;;;;;;;22.43;7.27;;;9.50;99.90;;;;;;5029856;28;20094;-64
2024/01/27 10:33:39;;;;;;;19.63;6.75;;;9.50;99.90;;;;;;5027798;28;20053;-65
2024/01/27 10:36:05;;;;;;;16.40;7.28;;;9.40;99.90;;;;;;5028587;28;20041;-65
2024/01/27 10:38:38;;;;;;;16.58;8.05;;;9.40;99.90;;;;;;5023342;28;20041;-65
2024/01/27 10:41:08;;;;;;;11.98;5.95;;;9.20;99.90;;;;;;5026983;28;20049;-65
2024/01/27 10:43:36;;;;;;;23.83;6.55;;;9.20;99.90;;;;;;5030069;28;20029;-65
2024/01/27 10:46:06;;;;;;;18.70;7.57;;;9.30;99.90;;;;;;5027805;28;20045;-65
2024/01/27 10:48:39;;;;;;;18.30;6.25;;;9.20;99.90;;;;;;5024237;28;20052;-65
2024/01/27 10:51:08;;;;;;;20.75;7.30;;;9.20;99.90;;;;;;5028818;28;20454;-65
2024/01/27 10:53:37;;;;;;;15.82;5.85;;;9.10;99.90;;;;;;5028288;28;20056;-65
2024/01/27 10:56:08;;;;;;;24.98;7.90;;;9.20;99.90;;;;;;5027094;28;20045;-66
2024/01/27 10:58:40;;;;;;;21.90;6.03;;;9.30;99.90;;;;;;5025668;28;20041;-65
2024/01/27 11:01:10;;;;;;;13.90;5.90;;;9.40;99.90;;;;;;5028047;28;20041;-65
2024/01/27 11:03:38;;;;;;;18.30;6.88;;;9.40;99.90;;;;;;5010674;28;20336;-65
2024/01/27 11:06:05;;;;;;;23.05;7.25;;;9.60;99.90;;;;;;5028657;28;20056;-66
2024/01/27 11:08:32;;;;;;;19.23;6.25;;;9.80;99.90;;;;;;5029051;28;20037;-66
2024/01/27 11:10:58;;;;;;;14.82;6.95;;;10.00;99.90;;;;;;5029123;28;20041;-65
2024/01/27 11:13:26;;;;;;;18.95;5.85;;;10.30;99.90;;;;;;5028969;28;20034;-66
2024/01/27 11:15:55;;;;;;;13.68;6.38;;;10.40;99.90;;;;;;5026175;28;20239;-65
2024/01/27 11:18:22;;;;;;;14.13;6.05;;;10.50;99.90;;;;;;5026195;28;20045;-65
2024/01/27 11:20:47;;;;;;;17.73;5.85;;;10.50;99.90;;;;;;5042891;28;20087;-66
2024/01/27 11:23:14;;;;;;;23.20;6.38;;;10.50;99.90;;;;;;5031691;28;20116;-65
2024/01/27 11:25:39;;;;;;;;;;;10.50;99.90;;;;;;5028393;28;20049;-66
2024/01/27 11:28:16;;;;;;;17.02;5.88;;;10.50;99.90;;;;;;5030459;28;19917;-65
2024/01/27 11:30:47;;;;;;;19.55;5.65;;;10.70;99.90;;;;;;5032826;28;20045;-67
2024/01/27 11:33:13;;;;;;;19.30;6.35;;;10.70;99.90;;;;;;5028698;28;20418;-65
2024/01/27 11:35:38;;;;;;;16.88;6.10;;;10.80;99.90;;;;;;5027797;28;20050;-66
2024/01/27 11:38:04;;;;;;;13.55;5.20;;;10.90;99.90;;;;;;5027787;28;20041;-66
2024/01/27 11:40:30;;;;;;;23.07;6.80;;;11.00;99.90;;;;;;5028142;28;20037;-65
2024/01/27 11:43:01;;;;;;;15.65;5.82;;;11.10;99.90;;;;;;5027020;28;20049;-65
2024/01/27 11:45:30;;;;;;;21.17;6.00;;;11.20;99.90;;;;;;5022851;28;20091;-65
2024/01/27 11:47:57;;;;;;;16.38;5.78;;;11.20;99.90;;;;;;5028164;28;20073;-65
2024/01/27 11:50:23;;;;;;;18.48;4.78;;;11.50;99.90;;;;;;5011094;28;20046;-65
2024/01/27 11:52:49;;;;;;;;;;;11.50;99.90;;;;;;5029052;28;20037;-65
2024/01/27 11:55:15;;;;;;;13.32;4.95;;;11.50;99.90;;;;;;5028747;28;19916;-65
2024/01/27 11:57:42;;;;;;;14.18;5.22;;;11.60;99.90;;;;;;5027969;28;20550;-65
2024/01/27 12:00:11;;;;;;;11.93;4.93;;;11.60;99.90;;;;;;5023755;28;20095;-65
2024/01/27 12:02:38;;;;;;;18.25;5.18;;;11.80;99.90;;;;;;5029758;28;20041;-65
2024/01/27 12:05:05;;;;;;;16.70;4.88;;;11.70;99.90;;;;;;5031833;28;20116;-65
2024/01/27 12:07:31;;;;;;;11.55;4.60;;;11.60;99.90;;;;;;5036575;28;20120;-65
2024/01/27 12:09:57;;;;;;;12.93;4.43;;;11.60;99.90;;;;;;5034694;28;20041;-65
2024/01/27 12:12:22;;;;;;;22.55;5.07;;;11.80;99.90;;;;;;5032261;28;20036;-65
2024/01/27 12:14:50;;;;;;;13.73;4.23;;;11.70;99.90;;;;;;5031097;28;20501;-65
2024/01/27 12:17:16;;;;;;;15.77;5.15;;;11.60;99.90;;;;;;5032813;28;20431;-65
2024/01/27 12:19:54;;;;;;;;;;;11.80;99.90;;;;;;5032155;28;20037;-69
2024/01/27 12:22:27;;;;;;;;;;;11.90;99.90;;;;;;5031208;28;19975;-69
2024/01/27 12:24:53;;;;;;;17.38;5.03;;;12.10;99.90;;;;;;5016179;28;19921;-69
2024/01/27 12:27:19;;;;;;;25.50;6.28;;;12.30;99.90;;;;;;5037509;28;20036;-69
2024/01/27 12:29:48;;;;;;;17.75;5.95;;;12.30;99.90;;;;;;5031801;28;20417;-69
2024/01/27 12:32:14;;;;;;;22.42;5.80;;;12.40;99.90;;;;;;5013898;28;20076;-69
2024/01/27 12:34:41;;;;;;;22.17;4.68;;;12.30;99.90;;;;;;5031091;28;20261;-69
2024/01/27 12:37:11;;;;;;;12.73;4.65;;;12.20;99.90;;;;;;5031777;28;20494;-69
2024/01/27 12:39:38;;;;;;;12.88;3.67;;;12.30;99.90;;;;;;5032561;28;20112;-69
2024/01/27 12:42:04;;;;;;;;;;;12.30;99.90;;;;;;5049382;28;20051;-69
2024/01/27 12:44:29;;;;;;;13.40;3.70;;;12.10;99.90;;;;;;5041818;28;20028;-69